KHOB/HOB METAR and TAF weather

Enter ICAO airport designator
Station Type Date Time Source
KHOB METAR 2021/09/24 02:55 UTC NOAA

KHOB 240255Z AUTO 13008KT 10SM CLR 17/00 A3006 RMK AO2


Station Type Date Time Source
KHOB Decoded METAR 2021/09/24 02:55 UTC NOAA

Hobbs / Lea County, NM, United States (KHOB) 32-41N 103-13W
Sep 23, 2021 - 10:55 PM EDT / 2021.09.24 0255 UTC
Wind: from the SE (130 degrees) at 9 MPH (8 KT):0
Visibility: 10 mile(s):0
Sky conditions: clear
Temperature: 62 F (17 C)
Dew Point: 32 F (0 C)
Relative Humidity: 31%
Pressure (altimeter): 30.06 in. Hg (1017 hPa)
ob: KHOB 240255Z AUTO 13008KT 10SM CLR 17/00 A3006 RMK AO2
cycle: 3

Station Type Date Time Source
KHOB TAF 2021/09/23 18:24 UTC NOAA

TAF KHOB 231722Z 2318/2418 16013G20KT P6SM SCT250
FM232300 13011KT P6SM SCT250

Example: see airport list